Aérodrome :
LOGIN :

S'inscrire | Disclaimer

   EN    FR    IT 

 










Légende :    VFR   VFR Marginal   IFR   IFR Intensif   IFR Très Intensif
Visi : 
Plafond : 
>= 8 km
>= 3000ft
5 à 8 km
1000 à 3000 ft
1500m à 5 km
500 à 1000 ft
800 à 1500m
200 à 500 ft
< 800m
< 200 ft
Symboles :   Orages  Brouillard  Fortes neiges  Fortes précipitations  Vent > 20 kt
SIGMETs :   Divers  Orages  Givrage  Turbulence  Onde Orograph.  Cendres Volcan.






- Altitude de l'aérodrome : 0 ft


ETEB - Ansbach Army Heliport

DERNIER METAR :
  • 250656Z AUTO 24011KT 9999 -RA OVC013 07/07 A2968 RMK AO2 DZB30E33RAB33 SLP073 P0000 T00660066 $

METARs EXPIRÉS :
  • 250630Z AUTO 25013G18KT 9999 -DZ OVC014 07/07 A2969 RMK AO2 DZB30 SLP077 $
  • 250556Z AUTO 24014KT 9999 BKN017 07/07 A2968 RMK AO2 CIG 017V033 SLP073 60000 T00670067 10091 20067 58010 $
  • 250456Z AUTO 25013G20KT 9999 SCT015 BKN031 07/07 A2970 RMK AO2 SLP080 P0000 T00700069 $

TAF AMD TAF ETEB
Valide du 25 à 06h jusqu'au 26 à 12h UTC


250634Z 2506/2612 25015G20KT 6000 -SHRA BKN010 540101 QNH2957INS
TEMPO 2506/2512 BKN006
BECMG 2517/2518 26010G15KT 9999 NSW BKN020 QNH2953INS
TEMPO 2602/2604 25015G25KT 6000 -SHRA BKN015
BECMG 2608/2609 24020G35KT 6000 -SHRA BKN025 QNH2942INS TX07/2515Z TN01/2605Z



MET'MAP, la Météo Aéronautique d'un coup d'oeil ! - Copyright ORBIFLY Décembre 2007 - Disclaimer

ORBIFLY MET'MAP TEAM :

Programmation & Développement : Alexandra Zaïnal
Sur une idée originale de : Baudouin d'Aumeries
Assistance à la programmation : Marc-Olivier Méhu
Soutien technique & logistique : Manuel Goepfert

Contact : metmap@orbifly.com




SOURCES & CREDITS :

   NOAA